createdAt,value
2018-02-19T00:00:07.881Z,2.30
2018-02-19T00:02:35.450Z,2.30
2018-02-19T00:05:03.822Z,2.20
2018-02-19T00:07:31.501Z,2.20
2018-02-19T00:09:59.107Z,2.20
2018-02-19T00:12:26.694Z,2.20
2018-02-19T00:14:54.294Z,2.20
2018-02-19T00:17:21.865Z,2.30
2018-02-19T00:19:49.455Z,2.30
2018-02-19T00:22:17.030Z,2.30
2018-02-19T00:24:44.626Z,2.30
2018-02-19T00:27:12.254Z,2.30
2018-02-19T00:29:40.604Z,2.30
2018-02-19T00:32:08.173Z,2.30
2018-02-19T00:34:35.765Z,2.30
2018-02-19T00:37:03.325Z,2.30
2018-02-19T00:39:30.923Z,2.40
2018-02-19T00:41:58.494Z,2.40
2018-02-19T00:44:26.082Z,2.40
2018-02-19T00:46:53.648Z,2.30
2018-02-19T00:49:22.008Z,2.10
2018-02-19T00:51:49.597Z,2.10
2018-02-19T00:54:17.176Z,2.10
2018-02-19T00:56:44.925Z,2.20
2018-02-19T00:59:12.558Z,2.30
2018-02-19T01:01:40.126Z,2.30
2018-02-19T01:04:07.713Z,2.30
2018-02-19T01:06:35.325Z,2.30
2018-02-19T01:09:02.997Z,2.20
2018-02-19T01:11:31.365Z,2.20
2018-02-19T01:13:58.983Z,2.20
2018-02-19T01:16:26.581Z,2.20
2018-02-19T01:18:54.152Z,2.20
2018-02-19T01:21:21.798Z,2.40
2018-02-19T01:23:49.400Z,2.50
2018-02-19T01:26:17.112Z,2.50
2018-02-19T01:28:44.697Z,2.40
2018-02-19T01:31:13.063Z,2.30
2018-02-19T01:33:40.634Z,2.30
2018-02-19T01:36:08.226Z,2.30
2018-02-19T01:38:35.796Z,2.30
2018-02-19T01:41:03.393Z,2.20
2018-02-19T01:43:30.965Z,2.30
2018-02-19T01:45:58.567Z,2.20
2018-02-19T01:48:26.145Z,2.10
2018-02-19T01:50:53.750Z,2.20
2018-02-19T01:53:21.317Z,2.20
2018-02-19T01:55:48.916Z,2.30
2018-02-19T01:58:16.497Z,2.20
2018-02-19T02:00:44.089Z,2.30
2018-02-19T02:03:12.421Z,2.50
2018-02-19T02:05:40.038Z,2.40
2018-02-19T02:08:08.376Z,2.40
2018-02-19T02:10:35.970Z,2.40
2018-02-19T02:13:03.565Z,2.40
2018-02-19T02:15:31.129Z,2.30
2018-02-19T02:17:58.736Z,2.20
2018-02-19T02:20:27.064Z,2.20
2018-02-19T02:22:54.660Z,2.10
2018-02-19T02:25:23.161Z,2.20
2018-02-19T02:27:50.763Z,2.10
2018-02-19T02:30:18.346Z,2.10
2018-02-19T02:32:45.947Z,2.10
2018-02-19T02:35:14.353Z,2.10
2018-02-19T02:37:41.944Z,2.00
2018-02-19T02:40:09.509Z,2.10
2018-02-19T02:42:37.115Z,2.20
2018-02-19T02:45:04.685Z,2.20
2018-02-19T02:47:32.294Z,2.10
2018-02-19T02:49:59.884Z,2.20
2018-02-19T02:52:27.482Z,2.10
2018-02-19T02:54:55.053Z,2.10
2018-02-19T02:57:22.645Z,2.00
2018-02-19T02:59:50.998Z,2.10
2018-02-19T03:02:18.594Z,2.10
2018-02-19T03:04:46.190Z,2.10
2018-02-19T03:07:13.773Z,2.10
2018-02-19T03:09:41.357Z,2.10
2018-02-19T03:12:08.960Z,2.00
2018-02-19T03:14:37.128Z,2.10
2018-02-19T03:17:04.733Z,2.10
2018-02-19T03:19:32.313Z,2.30
2018-02-19T03:21:59.917Z,2.10
2018-02-19T03:24:27.484Z,1.90
2018-02-19T03:26:55.082Z,1.90
2018-02-19T03:29:22.644Z,2.00
2018-02-19T03:31:51.018Z,2.10
2018-02-19T03:34:19.360Z,2.00
2018-02-19T03:36:46.922Z,2.00
2018-02-19T03:39:14.520Z,2.00
2018-02-19T03:41:42.098Z,2.00
2018-02-19T03:44:09.689Z,2.00
2018-02-19T03:46:37.341Z,2.00
2018-02-19T03:49:04.930Z,2.00
2018-02-19T03:51:32.502Z,2.00
2018-02-19T03:54:00.103Z,2.00
2018-02-19T03:56:27.875Z,1.90
2018-02-19T03:58:55.478Z,1.80
2018-02-19T04:01:23.059Z,1.90
2018-02-19T04:03:50.673Z,1.90
2018-02-19T04:06:18.260Z,2.00
2018-02-19T04:08:45.850Z,1.90
2018-02-19T04:11:13.616Z,1.90
2018-02-19T04:13:41.212Z,1.90
2018-02-19T04:16:08.781Z,1.90
2018-02-19T04:18:36.377Z,1.90
2018-02-19T04:21:04.722Z,2.00
2018-02-19T04:23:32.451Z,2.00
2018-02-19T04:26:00.021Z,1.90
2018-02-19T04:28:27.642Z,1.70
2018-02-19T04:30:55.224Z,1.70
2018-02-19T04:33:22.821Z,1.70
2018-02-19T04:35:51.160Z,1.70
2018-02-19T04:38:18.752Z,1.70
2018-02-19T04:40:52.713Z,1.70
2018-02-19T04:43:21.162Z,1.80
2018-02-19T04:45:49.516Z,1.80
2018-02-19T04:48:17.113Z,1.70
2018-02-19T04:50:44.690Z,1.60
2018-02-19T04:53:13.281Z,1.60
2018-02-19T04:55:40.848Z,1.60
2018-02-19T04:58:08.501Z,1.60
2018-02-19T05:00:43.886Z,1.50
2018-02-19T05:03:12.248Z,1.40
2018-02-19T05:05:39.849Z,1.40
2018-02-19T05:08:07.422Z,1.40
2018-02-19T05:10:35.018Z,1.40
2018-02-19T05:13:02.582Z,1.40
2018-02-19T05:15:30.179Z,1.50
2018-02-19T05:17:57.751Z,1.50
2018-02-19T05:20:26.104Z,1.50
2018-02-19T05:22:53.690Z,1.50
2018-02-19T05:25:22.051Z,1.60
2018-02-19T05:27:49.627Z,1.60
2018-02-19T05:30:17.234Z,1.60
2018-02-19T05:32:44.818Z,1.40
2018-02-19T05:35:12.405Z,1.50
2018-02-19T05:37:40.747Z,1.50
2018-02-19T05:40:08.332Z,1.50
2018-02-19T05:42:35.906Z,1.40
2018-02-19T05:45:03.499Z,1.40
2018-02-19T05:47:31.098Z,1.40
2018-02-19T05:49:58.712Z,1.50
2018-02-19T05:52:26.294Z,1.50
2018-02-19T05:54:54.861Z,1.60
2018-02-19T05:57:22.467Z,1.60
2018-02-19T05:59:50.099Z,1.60
2018-02-19T06:02:17.677Z,1.50
2018-02-19T06:04:45.261Z,1.50
2018-02-19T06:07:14.510Z,1.50
2018-02-19T06:09:42.134Z,1.50
2018-02-19T06:12:09.696Z,1.50
2018-02-19T06:14:37.269Z,1.60
2018-02-19T06:17:04.945Z,1.70
2018-02-19T06:19:32.523Z,1.80
2018-02-19T06:22:00.127Z,1.70
2018-02-19T06:24:27.713Z,1.60
2018-02-19T06:26:55.302Z,1.70
2018-02-19T06:29:24.390Z,1.60
2018-02-19T06:31:51.985Z,1.60
2018-02-19T06:34:20.330Z,1.60
2018-02-19T06:36:47.943Z,1.60
2018-02-19T06:39:15.606Z,1.60
2018-02-19T06:41:43.201Z,1.60
2018-02-19T06:44:10.769Z,1.50
2018-02-19T06:46:38.365Z,1.60
2018-02-19T06:49:05.961Z,1.60
2018-02-19T06:51:33.544Z,1.70
2018-02-19T06:54:01.105Z,1.80
2018-02-19T06:56:28.701Z,1.80
2018-02-19T06:58:57.029Z,1.80
2018-02-19T07:01:24.634Z,1.80
2018-02-19T07:03:52.195Z,1.70
2018-02-19T07:06:20.551Z,1.70
2018-02-19T07:08:48.127Z,1.70
2018-02-19T07:11:15.720Z,1.80
2018-02-19T07:13:43.291Z,1.90
2018-02-19T07:16:10.863Z,2.00
2018-02-19T07:18:38.470Z,1.90
2018-02-19T07:21:06.815Z,1.80
2018-02-19T07:23:34.417Z,1.80
2018-02-19T07:26:01.976Z,1.90
2018-02-19T07:28:29.711Z,1.80
2018-02-19T07:30:57.286Z,1.90
2018-02-19T07:33:25.648Z,2.00
2018-02-19T07:35:53.222Z,1.90
2018-02-19T07:38:20.833Z,1.90
2018-02-19T07:40:48.393Z,1.90
2018-02-19T07:43:15.982Z,1.90
2018-02-19T07:45:43.560Z,1.90
2018-02-19T07:48:11.931Z,1.90
2018-02-19T07:50:40.269Z,1.90
2018-02-19T07:53:07.867Z,1.90
2018-02-19T07:55:35.434Z,2.00
2018-02-19T07:58:03.066Z,2.10
2018-02-19T08:00:30.650Z,2.10
2018-02-19T08:02:58.233Z,2.10
2018-02-19T08:05:25.806Z,2.10
2018-02-19T08:07:53.406Z,2.30
2018-02-19T08:10:20.982Z,2.30
2018-02-19T08:12:48.586Z,2.30
2018-02-19T08:15:16.166Z,2.40
2018-02-19T08:17:43.791Z,2.40
2018-02-19T08:20:11.370Z,2.30
2018-02-19T08:22:38.954Z,2.30
2018-02-19T08:25:06.553Z,2.40
2018-02-19T08:27:34.134Z,2.40
2018-02-19T08:30:01.739Z,2.40
2018-02-19T08:32:29.308Z,2.40
2018-02-19T08:34:56.898Z,2.40
2018-02-19T08:37:24.466Z,2.50
2018-02-19T08:39:52.061Z,2.40
2018-02-19T08:42:19.649Z,2.50
2018-02-19T08:44:48.000Z,2.60
2018-02-19T08:47:15.565Z,2.60
2018-02-19T08:49:43.170Z,2.60
2018-02-19T08:52:10.739Z,2.60
2018-02-19T08:54:38.339Z,2.60
2018-02-19T08:57:07.409Z,2.70
2018-02-19T08:59:35.007Z,2.70
2018-02-19T09:02:02.578Z,2.80
2018-02-19T09:04:30.175Z,2.80
2018-02-19T09:06:57.744Z,2.90
2018-02-19T09:09:25.334Z,2.90
2018-02-19T09:11:52.906Z,3.00
2018-02-19T09:14:20.503Z,3.00
2018-02-19T09:16:48.087Z,2.90
2018-02-19T09:19:15.677Z,3.00
2018-02-19T09:21:43.246Z,3.00
2018-02-19T09:24:11.634Z,2.90
2018-02-19T09:26:39.968Z,3.00
2018-02-19T09:29:07.536Z,3.00
2018-02-19T09:31:35.141Z,3.00
2018-02-19T09:34:03.475Z,3.10
2018-02-19T09:36:31.836Z,3.10
2018-02-19T09:39:05.185Z,3.10
2018-02-19T09:41:32.785Z,3.10
2018-02-19T09:44:00.351Z,3.20
2018-02-19T09:46:27.964Z,3.10
2018-02-19T09:48:55.540Z,3.00
2018-02-19T09:51:23.140Z,3.20
2018-02-19T09:53:50.710Z,3.20
2018-02-19T09:56:18.318Z,3.10
2018-02-19T09:58:45.991Z,3.10
2018-02-19T10:01:13.606Z,3.10
2018-02-19T10:03:41.945Z,3.20
2018-02-19T10:06:09.569Z,3.20
2018-02-19T10:08:37.155Z,3.20
2018-02-19T10:11:04.754Z,3.30
2018-02-19T10:13:32.364Z,3.30
2018-02-19T10:16:00.663Z,3.30
2018-02-19T10:18:28.229Z,3.30
2018-02-19T10:20:55.828Z,3.30
2018-02-19T10:23:23.528Z,3.40
2018-02-19T10:25:51.113Z,3.50
2018-02-19T10:28:18.685Z,3.50
2018-02-19T10:30:46.274Z,3.60
2018-02-19T10:33:13.844Z,3.60
2018-02-19T10:35:41.442Z,3.60
2018-02-19T10:38:09.054Z,3.70
2018-02-19T10:40:36.626Z,3.90
2018-02-19T10:43:04.220Z,3.90
2018-02-19T10:45:31.788Z,3.90
2018-02-19T10:47:59.381Z,4.00
2018-02-19T10:50:26.952Z,4.10
2018-02-19T10:52:54.540Z,4.20
2018-02-19T10:55:22.110Z,4.10
2018-02-19T10:57:50.470Z,4.20
2018-02-19T11:00:23.710Z,4.20
2018-02-19T11:02:51.313Z,4.10
2018-02-19T11:05:18.881Z,4.20
2018-02-19T11:07:46.460Z,4.40
2018-02-19T11:10:14.021Z,4.40
2018-02-19T11:12:41.606Z,4.30
2018-02-19T11:15:09.182Z,4.30
2018-02-19T11:17:36.765Z,4.40
2018-02-19T11:20:04.332Z,4.40
2018-02-19T11:22:31.917Z,4.40
2018-02-19T11:24:59.477Z,4.40
2018-02-19T11:27:27.087Z,4.50
2018-02-19T11:29:54.845Z,4.40
2018-02-19T11:32:23.210Z,4.40
2018-02-19T11:34:50.783Z,4.40
2018-02-19T11:37:20.460Z,4.40
2018-02-19T11:39:48.082Z,4.40
2018-02-19T11:42:15.687Z,4.40
2018-02-19T11:44:43.261Z,4.40
2018-02-19T11:47:10.856Z,4.40
2018-02-19T11:49:38.432Z,4.40
2018-02-19T11:52:06.026Z,4.40
2018-02-19T11:54:33.593Z,4.50
2018-02-19T11:57:01.167Z,4.50
2018-02-19T11:59:28.761Z,4.50
2018-02-19T12:01:56.324Z,4.50
2018-02-19T12:04:23.908Z,4.50
2018-02-19T12:06:51.482Z,4.50
2018-02-19T12:09:19.076Z,4.50
2018-02-19T12:11:46.650Z,4.50
2018-02-19T12:14:14.245Z,4.50
2018-02-19T12:16:41.829Z,4.50
2018-02-19T12:19:10.195Z,4.50
2018-02-19T12:21:37.774Z,4.50
2018-02-19T12:24:05.366Z,4.60
2018-02-19T12:26:32.943Z,4.50
2018-02-19T12:29:00.534Z,4.50
2018-02-19T12:31:28.106Z,4.60
2018-02-19T12:33:56.461Z,4.60
2018-02-19T12:36:24.761Z,4.60
2018-02-19T12:38:53.126Z,4.60
2018-02-19T12:41:20.697Z,4.60
2018-02-19T12:43:49.055Z,4.70
2018-02-19T12:46:16.627Z,4.70
2018-02-19T12:48:44.224Z,4.70
2018-02-19T12:51:11.798Z,4.80
2018-02-19T12:53:39.398Z,4.80
2018-02-19T12:56:06.970Z,4.90
2018-02-19T12:58:35.326Z,4.80
2018-02-19T13:01:02.915Z,4.80
2018-02-19T13:03:30.524Z,4.80
2018-02-19T13:05:58.098Z,4.80
2018-02-19T13:08:25.690Z,4.90
2018-02-19T13:10:53.264Z,4.80
2018-02-19T13:13:20.862Z,4.80
2018-02-19T13:15:49.197Z,4.90
2018-02-19T13:18:16.796Z,4.90
2018-02-19T13:20:44.519Z,4.80
2018-02-19T13:23:12.130Z,4.80
2018-02-19T13:25:39.703Z,4.70
2018-02-19T13:28:08.208Z,4.80
2018-02-19T13:30:35.797Z,4.90
2018-02-19T13:33:03.361Z,4.90
2018-02-19T13:35:30.949Z,4.80
2018-02-19T13:37:58.545Z,4.80
2018-02-19T13:40:26.907Z,4.70
2018-02-19T13:42:54.474Z,4.70
2018-02-19T13:45:22.849Z,4.70
2018-02-19T13:47:51.186Z,4.70
2018-02-19T13:50:18.782Z,4.70
2018-02-19T13:52:46.376Z,4.70
2018-02-19T13:55:13.971Z,4.70
2018-02-19T13:57:41.590Z,4.70
2018-02-19T14:00:09.177Z,4.80
2018-02-19T14:02:36.745Z,4.80
2018-02-19T14:05:04.402Z,4.70
2018-02-19T14:07:31.973Z,4.70
2018-02-19T14:09:59.583Z,4.70
2018-02-19T14:12:27.151Z,4.60
2018-02-19T14:14:54.745Z,4.70
2018-02-19T14:17:22.313Z,4.60
2018-02-19T14:19:49.906Z,4.50
2018-02-19T14:22:18.237Z,4.50
2018-02-19T14:24:46.481Z,4.50
2018-02-19T14:27:14.046Z,4.60
2018-02-19T14:29:41.646Z,4.60
2018-02-19T14:32:09.227Z,4.60
2018-02-19T14:34:36.926Z,4.60
2018-02-19T14:37:04.488Z,4.60
2018-02-19T14:39:32.072Z,4.60
2018-02-19T14:41:59.646Z,4.60
2018-02-19T14:44:27.238Z,4.60
2018-02-19T14:46:54.815Z,4.60
2018-02-19T14:49:22.409Z,4.60
2018-02-19T14:51:49.973Z,4.60
2018-02-19T14:54:17.562Z,4.60
2018-02-19T14:56:45.130Z,4.60
2018-02-19T14:59:12.718Z,4.60
2018-02-19T15:01:40.301Z,4.50
2018-02-19T15:04:08.434Z,4.70
2018-02-19T15:06:36.074Z,4.70
2018-02-19T15:09:03.641Z,4.70
2018-02-19T15:11:31.229Z,4.70
2018-02-19T15:13:58.807Z,4.60
2018-02-19T15:16:27.368Z,4.40
2018-02-19T15:18:54.942Z,4.30
2018-02-19T15:21:22.541Z,4.30
2018-02-19T15:23:50.883Z,4.20
2018-02-19T15:26:18.476Z,4.20
2018-02-19T15:28:46.858Z,4.20
2018-02-19T15:31:14.519Z,4.20
2018-02-19T15:33:42.054Z,4.20
2018-02-19T15:36:09.677Z,4.20
2018-02-19T15:38:37.249Z,4.20
2018-02-19T15:41:04.842Z,4.20
2018-02-19T15:43:32.415Z,4.20
2018-02-19T15:46:00.778Z,4.00
2018-02-19T15:48:28.344Z,4.00
2018-02-19T15:50:55.947Z,4.00
2018-02-19T15:53:24.344Z,4.10
2018-02-19T15:55:51.936Z,4.00
2018-02-19T15:58:19.516Z,4.00
2018-02-19T16:00:47.875Z,3.90
2018-02-19T16:03:15.458Z,3.90
2018-02-19T16:05:43.864Z,3.90
2018-02-19T16:08:11.428Z,3.80
2018-02-19T16:10:39.017Z,3.90
2018-02-19T16:13:06.587Z,3.80
2018-02-19T16:15:34.193Z,3.80
2018-02-19T16:18:01.946Z,3.80
2018-02-19T16:20:30.017Z,3.80
2018-02-19T16:22:57.577Z,3.80
2018-02-19T16:25:25.141Z,3.80
2018-02-19T16:27:53.678Z,3.70
2018-02-19T16:30:21.250Z,3.70
2018-02-19T16:32:49.618Z,3.60
2018-02-19T16:35:17.958Z,3.70
2018-02-19T16:37:45.561Z,3.60
2018-02-19T16:40:13.130Z,3.70
2018-02-19T16:42:41.504Z,3.60
2018-02-19T16:45:09.844Z,3.60
2018-02-19T16:47:37.438Z,3.50
2018-02-19T16:50:05.774Z,3.50
2018-02-19T16:52:33.383Z,3.50
2018-02-19T16:55:01.713Z,3.50
2018-02-19T16:57:29.314Z,3.50
2018-02-19T16:59:57.645Z,3.50
2018-02-19T17:02:25.242Z,3.50
2018-02-19T17:04:52.814Z,3.50
2018-02-19T17:07:21.225Z,3.50
2018-02-19T17:09:48.791Z,3.50
2018-02-19T17:12:16.377Z,3.50
2018-02-19T17:14:43.950Z,3.40
2018-02-19T17:17:11.560Z,3.30
2018-02-19T17:19:39.129Z,3.30
2018-02-19T17:22:06.722Z,3.30
2018-02-19T17:24:34.285Z,3.30
2018-02-19T17:27:01.873Z,3.30
2018-02-19T17:29:29.459Z,3.30
2018-02-19T17:31:57.050Z,3.30
2018-02-19T17:34:24.622Z,3.30
2018-02-19T17:36:52.223Z,3.30
2018-02-19T17:39:19.795Z,3.40
2018-02-19T17:41:47.390Z,3.40
2018-02-19T17:44:14.989Z,3.40
2018-02-19T17:46:42.583Z,3.20
2018-02-19T17:49:10.156Z,3.40
2018-02-19T17:51:37.750Z,3.40
2018-02-19T17:54:05.321Z,3.40
2018-02-19T17:56:32.913Z,3.40
2018-02-19T17:59:00.486Z,3.30
2018-02-19T18:01:28.843Z,3.30
2018-02-19T18:03:56.418Z,3.30
2018-02-19T18:06:23.990Z,3.20
2018-02-19T18:08:51.586Z,3.10
2018-02-19T18:11:19.156Z,3.10
2018-02-19T18:13:46.741Z,3.10
2018-02-19T18:16:14.309Z,3.00
2018-02-19T18:18:41.899Z,2.80
2018-02-19T18:21:09.468Z,2.70
2018-02-19T18:23:37.062Z,2.80
2018-02-19T18:26:04.840Z,2.90
2018-02-19T18:28:32.434Z,2.90
2018-02-19T18:31:00.006Z,2.90
2018-02-19T18:33:27.597Z,3.00
2018-02-19T18:35:55.175Z,3.00
2018-02-19T18:38:22.761Z,3.00
2018-02-19T18:40:50.330Z,2.80
2018-02-19T18:43:17.927Z,2.70
2018-02-19T18:45:45.504Z,2.70
2018-02-19T18:48:13.102Z,2.50
2018-02-19T18:50:40.684Z,2.50
2018-02-19T18:53:08.281Z,2.60
2018-02-19T18:55:35.854Z,2.60
2018-02-19T18:58:03.447Z,2.60
2018-02-19T19:00:32.010Z,2.60
2018-02-19T19:02:59.656Z,2.70
2018-02-19T19:05:27.222Z,2.60
2018-02-19T19:08:07.012Z,2.70
2018-02-19T19:10:58.268Z,2.70
2018-02-19T19:13:25.895Z,2.60
2018-02-19T19:15:54.902Z,2.50
2018-02-19T19:18:22.559Z,2.50
2018-02-19T19:20:50.124Z,2.50
2018-02-19T19:23:17.718Z,2.50
2018-02-19T19:25:45.285Z,2.50
2018-02-19T19:28:12.926Z,2.60
2018-02-19T19:30:40.498Z,2.70
2018-02-19T19:33:08.087Z,2.80
2018-02-19T19:35:35.653Z,2.80
2018-02-19T19:38:04.011Z,2.70
2018-02-19T19:40:31.581Z,2.60
2018-02-19T19:42:59.169Z,2.70
2018-02-19T19:45:26.737Z,2.70
2018-02-19T19:47:54.321Z,2.80
2018-02-19T19:50:21.889Z,2.60
2018-02-19T19:52:49.486Z,2.60
2018-02-19T19:55:17.058Z,2.50
2018-02-19T19:57:45.461Z,2.50
2018-02-19T20:00:13.026Z,2.50
2018-02-19T20:02:40.627Z,2.40
2018-02-19T20:05:09.056Z,2.40
2018-02-19T20:07:36.647Z,2.40
2018-02-19T20:10:04.238Z,2.30
2018-02-19T20:12:31.801Z,2.30
2018-02-19T20:15:00.162Z,2.30
2018-02-19T20:17:27.809Z,2.30
2018-02-19T20:19:55.474Z,2.30
2018-02-19T20:22:23.050Z,2.20
2018-02-19T20:24:50.650Z,2.20
2018-02-19T20:27:18.351Z,2.20
2018-02-19T20:29:45.950Z,2.20
2018-02-19T20:32:14.291Z,2.40
2018-02-19T20:34:41.913Z,2.30
2018-02-19T20:37:09.482Z,2.20
2018-02-19T20:39:37.069Z,2.20
2018-02-19T20:42:04.637Z,2.30
2018-02-19T20:44:32.221Z,2.30
2018-02-19T20:47:00.549Z,2.50
2018-02-19T20:49:28.297Z,2.40
2018-02-19T20:51:55.857Z,2.40
2018-02-19T20:54:23.440Z,2.30
2018-02-19T20:56:52.517Z,2.30
2018-02-19T20:59:20.166Z,2.20
2018-02-19T21:01:47.811Z,2.20
2018-02-19T21:04:16.394Z,2.20
2018-02-19T21:06:45.254Z,2.10
2018-02-19T21:09:12.886Z,2.20
2018-02-19T21:11:40.546Z,2.20
2018-02-19T21:14:08.134Z,2.20
2018-02-19T21:16:36.473Z,2.20
2018-02-19T21:19:04.075Z,2.20
2018-02-19T21:21:31.647Z,2.20
2018-02-19T21:23:59.242Z,2.30
2018-02-19T21:26:26.822Z,2.20
2018-02-19T21:28:54.416Z,2.10
2018-02-19T21:31:21.991Z,2.10
2018-02-19T21:33:49.738Z,2.30
2018-02-19T21:36:17.325Z,2.30
2018-02-19T21:38:45.131Z,2.20
2018-02-19T21:41:14.121Z,2.20
2018-02-19T21:43:42.469Z,2.20
2018-02-19T21:46:10.081Z,2.20
2018-02-19T21:48:40.177Z,2.20
2018-02-19T21:51:07.817Z,2.10
2018-02-19T21:53:37.233Z,2.10
2018-02-19T21:56:05.369Z,2.10
2018-02-19T21:58:32.937Z,2.20
2018-02-19T22:01:00.521Z,2.20
2018-02-19T22:03:28.093Z,2.20
2018-02-19T22:05:56.349Z,2.40
2018-02-19T22:08:23.962Z,2.30
2018-02-19T22:10:52.510Z,2.10
2018-02-19T22:13:24.433Z,2.10
2018-02-19T22:15:54.866Z,2.00
2018-02-19T22:18:33.348Z,2.00
2018-02-19T22:21:02.898Z,2.00
2018-02-19T22:23:32.344Z,2.00
2018-02-19T22:26:00.106Z,1.90
2018-02-19T22:28:27.739Z,2.00
2018-02-19T22:30:55.523Z,2.10
2018-02-19T22:33:23.232Z,2.10
2018-02-19T22:35:51.159Z,2.00
2018-02-19T22:38:20.737Z,2.10
2018-02-19T22:40:49.318Z,2.10
2018-02-19T22:43:18.929Z,2.10
2018-02-19T22:45:47.817Z,2.00
2018-02-19T22:48:15.605Z,2.00
2018-02-19T22:50:43.757Z,2.10
2018-02-19T22:53:12.826Z,2.10
2018-02-19T22:55:40.868Z,2.10
2018-02-19T22:58:08.657Z,2.10
2018-02-19T23:00:36.467Z,2.10
2018-02-19T23:03:04.199Z,2.20
2018-02-19T23:05:31.808Z,2.20
2018-02-19T23:08:00.856Z,2.10
2018-02-19T23:10:29.894Z,2.00
2018-02-19T23:12:57.491Z,2.00
2018-02-19T23:15:25.105Z,2.10
2018-02-19T23:17:53.442Z,2.10
2018-02-19T23:20:21.046Z,2.10
2018-02-19T23:22:48.619Z,2.20
2018-02-19T23:25:16.213Z,2.20
2018-02-19T23:27:43.794Z,2.10
2018-02-19T23:30:11.389Z,2.10
2018-02-19T23:32:38.953Z,2.10
2018-02-19T23:35:06.596Z,2.10
2018-02-19T23:37:34.170Z,2.00
2018-02-19T23:40:02.029Z,2.00
2018-02-19T23:42:30.361Z,2.10
2018-02-19T23:44:57.967Z,2.10
2018-02-19T23:47:26.299Z,2.10
2018-02-19T23:49:53.894Z,2.10
2018-02-19T23:52:21.460Z,2.10
2018-02-19T23:54:49.829Z,2.20
2018-02-19T23:57:18.161Z,2.10
2018-02-19T23:59:45.730Z,2.10
